Time;durP1;ratioP1;P1;durP2;ratioP2;P2;SDS_P1;SDS_P2;PMS_P1;PMS_P2;Temp;Humidity;BMP_temperature;BMP_pressure;BME280_temperature;BME280_humidity;BME280_pressure;Samples;Min_cycle;Max_cycle;Signal;HPM_P1;HPM_P2
2022/08/04 00:00:30;;;;;;;;;;;;;;;20.34;63.71;100830.50;5009574;28;19960;-78
2022/08/04 00:03:18;;;;;;;;;;;;;;;20.30;64.36;100822.84;5034744;28;20003;-78
2022/08/04 00:05:53;;;;;;;;;;;;;;;20.28;64.59;100825.59;5029032;28;19925;-78
2022/08/04 00:08:30;;;;;;;;;;;;;;;20.28;64.23;100825.59;5036006;28;19921;-78
2022/08/04 00:10:57;;;;;;;;;;;;;;;20.26;64.65;100826.63;5049548;28;19935;-78
2022/08/04 00:13:23;;;;;;;;;;;;;;;20.26;64.52;100824.00;5022014;28;19921;-78
2022/08/04 00:15:53;;;;;;;;;;;;;;;20.30;64.19;100815.78;5023678;28;21354;-78
2022/08/04 00:18:22;;;;;;;;;;;;;;;20.32;62.91;100824.47;5037475;28;19936;-78
2022/08/04 00:20:48;;;;;;;;;;;;;;;20.24;63.78;100824.06;5028353;28;20349;-78
2022/08/04 01:48:29;;;;;;;;;;;;;;;19.83;69.08;100807.19;5042863;28;19935;-78
2022/08/04 01:51:01;;;;;;;;;;;;;;;19.80;69.05;100810.88;5049853;28;19928;-78
2022/08/04 01:53:34;;;;;;;;;;;;;;;19.85;68.49;100805.31;5038075;28;19928;-78
2022/08/04 01:56:01;;;;;;;;;;;;;;;19.84;68.79;100803.63;5023867;28;20019;-78
2022/08/04 01:58:28;;;;;;;;;;;;;;;19.79;68.93;100798.63;5010581;28;19929;-78
2022/08/04 02:01:01;;;;;;;;;;;;;;;19.79;68.92;100805.66;5007960;28;20317;-78
2022/08/04 02:03:26;;;;;;;;;;;;;;;19.78;68.98;100802.22;5031460;28;19921;-78
2022/08/04 02:05:55;;;;;;;;;;;;;;;19.82;68.46;100800.22;5025343;28;19940;-78
2022/08/04 02:08:24;;;;;;;;;;;;;;;19.78;68.71;100794.31;5041271;28;20421;-78
2022/08/04 02:11:02;;;;;;;;;;;;;;;19.77;68.39;100794.38;5026810;28;19974;-78
2022/08/04 02:13:43;;;;;;;;;;;;;;;19.72;68.79;100793.81;5043889;28;19921;-78
2022/08/04 02:16:08;;;;;;;;;;;;;;;19.71;68.64;100786.81;5038404;28;20030;-78
2022/08/04 02:18:34;;;;;;;;;;;;;;;19.68;68.53;100782.59;5026783;28;20514;-78
2022/08/04 02:21:03;;;;;;;;;;;;;;;19.69;68.58;100786.94;5043943;28;20003;-78
2022/08/04 02:23:36;;;;;;;;;;;;;;;19.68;68.58;100782.59;5054732;28;19921;-78
2022/08/04 02:26:10;;;;;;;;;;;;;;;19.67;68.21;100785.28;5015693;28;19978;-78
2022/08/04 02:28:35;;;;;;;;;;;;;;;19.67;67.44;100777.38;5048402;28;19920;-77
2022/08/04 02:31:01;;;;;;;;;;;;;;;19.67;67.59;100785.28;5037311;28;19947;-78
2022/08/04 02:33:31;;;;;;;;;;;;;;;19.65;68.14;100781.91;5047759;28;20561;-78
2022/08/04 02:35:58;;;;;;;;;;;;;;;19.64;67.43;100777.59;5042413;28;20305;-78
2022/08/04 02:38:31;;;;;;;;;;;;;;;19.61;67.60;100783.88;5032243;28;19940;-78
2022/08/04 02:40:59;;;;;;;;;;;;;;;19.62;67.62;100780.31;5049194;28;20871;-78
2022/08/04 02:43:24;;;;;;;;;;;;;;;19.63;67.51;100782.00;5033448;28;19955;-78
2022/08/04 02:45:54;;;;;;;;;;;;;;;19.62;67.10;100782.09;5032008;28;19983;-78
2022/08/04 02:48:21;;;;;;;;;;;;;;;19.61;67.31;100778.59;5054204;28;19956;-78
2022/08/04 02:50:47;;;;;;;;;;;;;;;19.61;67.50;100775.16;5028260;28;19952;-78
2022/08/04 02:53:14;;;;;;;;;;;;;;;19.59;67.48;100779.63;5042988;28;20007;-77
2022/08/04 02:55:41;;;;;;;;;;;;;;;19.58;67.56;100776.13;5027981;28;19979;-78
2022/08/04 02:58:06;;;;;;;;;;;;;;;19.58;67.43;100770.03;5039058;28;19932;-78
2022/08/04 03:00:32;;;;;;;;;;;;;;;19.54;67.76;100771.16;5041395;28;20317;-78
2022/08/04 03:02:57;;;;;;;;;;;;;;;19.54;67.47;100771.16;5027291;28;19921;-78
2022/08/04 03:05:32;;;;;;;;;;;;;;;19.53;67.45;100769.44;5042890;28;20039;-78
2022/08/04 03:07:58;;;;;;;;;;;;;;;19.51;67.70;100772.19;5028682;28;19921;-78
2022/08/04 03:10:29;;;;;;;;;;;;;;;19.52;67.69;100770.41;5037247;28;19927;-78
2022/08/04 03:13:06;;;;;;;;;;;;;;;19.51;67.66;100764.28;5029022;28;20374;-78
2022/08/04 03:15:41;;;;;;;;;;;;;;;19.50;67.89;100764.34;5027418;28;20062;-78
2022/08/04 03:18:06;;;;;;;;;;;;;;;19.52;67.69;100765.13;5027768;28;19960;-78
2022/08/04 03:20:50;;;;;;;;;;;;;;;19.50;67.88;100769.63;5028144;28;20432;-78
2022/08/04 03:23:25;;;;;;;;;;;;;;;19.41;67.73;100763.09;5043285;28;19927;-78
2022/08/04 03:26:09;;;;;;;;;;;;;;;19.43;67.90;100766.47;5023353;28;20027;-78
2022/08/04 03:28:53;;;;;;;;;;;;;;;19.44;67.56;100765.56;5025628;28;19939;-78
2022/08/04 03:31:42;;;;;;;;;;;;;;;19.43;67.94;100768.28;5026161;28;19952;-77
2022/08/04 03:34:10;;;;;;;;;;;;;;;19.44;67.84;100764.72;4997071;28;19925;-77
2022/08/04 03:36:48;;;;;;;;;;;;;;;19.41;68.35;100762.25;5048166;28;20006;-78
2022/08/04 03:39:24;;;;;;;;;;;;;;;19.41;68.04;100764.88;5027072;28;19920;-78
2022/08/04 03:42:09;;;;;;;;;;;;;;;19.40;67.99;100758.75;5026375;28;20408;-78
2022/08/04 03:44:53;;;;;;;;;;;;;;;19.42;67.79;100764.81;5002441;28;20031;-78
2022/08/04 03:47:37;;;;;;;;;;;;;;;19.40;67.89;100761.38;5025709;28;19975;-78
2022/08/04 03:50:05;;;;;;;;;;;;;;;19.41;68.11;100762.25;5026572;28;19921;-78
2022/08/04 03:53:10;;;;;;;;;;;;;;;19.37;68.29;100760.75;5039666;28;20000;-78
2022/08/04 03:55:39;;;;;;;;;;;;;;;19.40;68.22;100753.50;5027355;28;20365;-78
2022/08/04 03:58:16;;;;;;;;;;;;;;;19.39;68.60;100749.19;5031347;28;19959;-78
2022/08/04 04:01:00;;;;;;;;;;;;;;;19.38;68.52;100754.53;5027909;28;19930;-78
2022/08/04 04:03:28;;;;;;;;;;;;;;;19.38;68.69;100751.88;5047923;28;19925;-78
2022/08/04 04:05:54;;;;;;;;;;;;;;;19.37;68.11;100745.78;5043132;28;20012;-78
2022/08/04 04:08:45;;;;;;;;;;;;;;;19.39;68.24;100750.97;5029161;28;20049;-78
2022/08/04 04:11:10;;;;;;;;;;;;;;;19.40;68.10;100750.03;5048262;28;19936;-77
2022/08/04 04:13:55;;;;;;;;;;;;;;;19.41;68.24;100754.34;5047625;28;19929;-77
2022/08/04 04:16:23;;;;;;;;;;;;;;;19.43;68.09;100755.13;5024046;28;20423;-78
2022/08/04 04:18:51;;;;;;;;;;;;;;;19.46;68.34;100755.78;5046491;28;19921;-78
2022/08/04 04:21:35;;;;;;;;;;;;;;;19.41;68.33;100754.34;5046766;28;19952;-78
2022/08/04 04:24:19;;;;;;;;;;;;;;;19.40;68.52;100750.84;5024136;28;19917;-77
2022/08/04 04:26:53;;;;;;;;;;;;;;;19.43;68.28;100763.03;5044735;28;19927;-78
2022/08/04 04:29:25;;;;;;;;;;;;;;;19.39;68.51;100757.09;5028310;28;19931;-78
2022/08/04 04:31:50;;;;;;;;;;;;;;;19.38;68.63;100759.78;5042024;28;19925;-78
2022/08/04 04:34:15;;;;;;;;;;;;;;;19.38;68.37;100763.28;5044906;28;19928;-78
2022/08/04 04:36:53;;;;;;;;;;;;;;;19.41;68.14;100760.47;5044910;28;19928;-78
2022/08/04 04:39:31;;;;;;;;;;;;;;;19.42;68.09;100761.31;5030748;28;20019;-78
2022/08/04 04:41:56;;;;;;;;;;;;;;;19.44;67.55;100764.72;5028846;28;19961;-78
2022/08/04 04:44:33;;;;;;;;;;;;;;;19.41;68.15;100770.16;5042962;28;20436;-78
2022/08/04 04:47:18;;;;;;;;;;;;;;;19.41;68.52;100770.16;5042909;28;19924;-78
2022/08/04 04:49:49;;;;;;;;;;;;;;;19.44;68.01;100764.72;5050051;28;20150;-78
2022/08/04 04:52:26;;;;;;;;;;;;;;;19.47;67.38;100761.91;5033143;28;19928;-78
2022/08/04 04:55:14;;;;;;;;;;;;;;;19.44;67.57;100764.72;5045702;28;19921;-78
2022/08/04 04:57:40;;;;;;;;;;;;;;;19.50;67.30;100757.31;5048100;28;19973;-78
2022/08/04 05:00:07;;;;;;;;;;;;;;;19.49;67.47;100763.50;5015147;28;19959;-78
2022/08/04 05:02:39;;;;;;;;;;;;;;;19.52;68.14;100765.97;5032022;28;19925;-78
2022/08/04 05:05:07;;;;;;;;;;;;;;;19.50;68.31;100761.72;5042809;28;19953;-77
2022/08/04 05:07:33;;;;;;;;;;;;;;;19.52;68.20;100765.13;5041436;28;19924;-78
2022/08/04 05:10:17;;;;;;;;;;;;;;;19.56;67.80;100770.13;5037475;28;20383;-77
2022/08/04 05:12:42;;;;;;;;;;;;;;;19.55;68.12;100771.03;5047005;28;19921;-78
2022/08/04 05:15:09;;;;;;;;;;;;;;;19.55;68.26;100772.88;5034056;28;19923;-77
2022/08/04 05:17:39;;;;;;;;;;;;;;;19.57;68.08;100779.72;5046245;28;20382;-78
2022/08/04 05:20:07;;;;;;;;;;;;;;;19.60;67.77;100778.69;5045631;28;20443;-78
2022/08/04 05:22:36;;;;;;;;;;;;;;;19.59;68.55;100769.94;5052349;28;20377;-77
2022/08/04 05:25:20;;;;;;;;;;;;;;;19.61;68.40;100780.41;5034529;28;20007;-77
2022/08/04 05:27:49;;;;;;;;;;;;;;;19.68;67.38;100784.38;5047713;28;19996;-77
2022/08/04 05:30:16;;;;;;;;;;;;;;;19.67;67.55;100785.28;5030778;28;20373;-78
2022/08/04 05:32:52;;;;;;;;;;;;;;;19.71;67.08;100781.56;5028150;28;19925;-78
2022/08/04 05:35:30;;;;;;;;;;;;;;;19.74;66.81;100776.09;5023582;28;19948;-78
2022/08/04 05:37:56;;;;;;;;;;;;;;;19.76;67.16;100774.22;5050687;28;20011;-79
2022/08/04 05:40:24;;;;;;;;;;;;;;;19.75;67.14;100780.44;5034670;28;20524;-78
2022/08/04 05:42:50;;;;;;;;;;;;;;;19.76;67.00;100775.06;5026025;28;19945;-78
2022/08/04 05:45:16;;;;;;;;;;;;;;;19.78;66.78;100782.91;5050024;28;19916;-78
2022/08/04 05:47:42;;;;;;;;;;;;;;;19.78;66.78;100782.91;5045129;28;19920;-78
2022/08/04 05:50:08;;;;;;;;;;;;;;;19.80;67.07;100788.91;5063497;28;19990;-78
2022/08/04 05:52:35;;;;;;;;;;;;;;;19.82;66.54;100778.31;5047380;28;19944;-78
2022/08/04 05:55:01;;;;;;;;;;;;;;;19.84;66.52;100776.41;5053394;28;19924;-78
2022/08/04 05:57:27;;;;;;;;;;;;;;;19.84;66.78;100773.78;5028367;28;20026;-78
2022/08/04 05:59:54;;;;;;;;;;;;;;;19.88;66.04;100778.75;5017448;28;19931;-78
2022/08/04 06:02:19;;;;;;;;;;;;;;;19.88;66.02;100773.50;5020504;28;19924;-77
2022/08/04 06:04:47;;;;;;;;;;;;;;;19.90;65.91;100768.16;5011746;28;19925;-78
2022/08/04 06:07:13;;;;;;;;;;;;;;;19.91;66.10;100777.72;5033707;28;20521;-78
2022/08/04 06:09:39;;;;;;;;;;;;;;;19.93;66.49;100775.88;5016134;28;19935;-78
2022/08/04 06:12:10;;;;;;;;;;;;;;;19.94;66.29;100770.50;5033842;28;19920;-78
2022/08/04 06:14:44;;;;;;;;;;;;;;;19.97;66.41;100772.94;5028590;28;19929;-78
2022/08/04 06:17:14;;;;;;;;;;;;;;;19.98;66.32;100774.66;5037123;28;19951;-78
2022/08/04 06:19:40;;;;;;;;;;;;;;;20.03;65.91;100766.47;5022711;28;19934;-78
2022/08/04 06:22:08;;;;;;;;;;;;;;;20.05;65.69;100767.22;5053651;28;19921;-78
2022/08/04 06:24:35;;;;;;;;;;;;;;;20.07;65.10;100768.84;5016850;28;19936;-78
2022/08/04 06:27:02;;;;;;;;;;;;;;;20.10;64.79;100770.47;5037957;28;19930;-78
2022/08/04 06:29:39;;;;;;;;;;;;;;;20.13;64.41;100765.84;5050423;28;19929;-78
2022/08/04 06:34:57;;;;;;;;;;;;;;;20.15;64.62;100761.31;5043779;28;19963;-78
2022/08/04 06:37:24;;;;;;;;;;;;;;;20.16;64.56;100765.66;5028915;28;20364;-78
2022/08/04 06:39:50;;;;;;;;;;;;;;;20.18;64.62;100770.84;5030075;28;19917;-78
2022/08/04 06:42:16;;;;;;;;;;;;;;;20.19;64.40;100772.53;5048181;28;20299;-78
2022/08/04 06:44:43;;;;;;;;;;;;;;;20.20;64.42;100768.97;5029763;28;19925;-78
2022/08/04 06:47:09;;;;;;;;;;;;;;;20.19;64.73;100765.50;5038776;28;20340;-78
2022/08/04 06:49:36;;;;;;;;;;;;;;;20.20;64.61;100771.63;5036386;28;19931;-78
2022/08/04 06:52:02;;;;;;;;;;;;;;;20.19;64.53;100767.28;5053160;28;19983;-77
2022/08/04 06:54:27;;;;;;;;;;;;;;;20.19;64.66;100770.75;5033070;28;19920;-78
2022/08/04 06:56:55;;;;;;;;;;;;;;;20.21;64.62;100773.28;5047110;28;20377;-78
2022/08/04 06:59:21;;;;;;;;;;;;;;;20.24;64.49;100768.69;5049577;28;19924;-78
2022/08/04 07:01:50;;;;;;;;;;;;;;;20.22;64.35;100767.94;5035499;28;20443;-78
2022/08/04 07:04:16;;;;;;;;;;;;;;;20.28;64.42;100767.56;5046790;28;19920;-78
2022/08/04 07:06:41;;;;;;;;;;;;;;;20.29;64.21;100771.88;5016440;28;20422;-78
2022/08/04 07:09:07;;;;;;;;;;;;;;;20.33;63.75;100770.75;5049520;28;19968;-78
2022/08/04 07:11:32;;;;;;;;;;;;;;;20.24;64.19;100767.84;5028134;28;20405;-78
2022/08/04 07:13:58;;;;;;;;;;;;;;;20.23;64.67;100763.50;5059862;28;19920;-78
2022/08/04 07:16:24;;;;;;;;;;;;;;;20.25;64.18;100766.91;5047955;28;20030;-78
2022/08/04 07:18:49;;;;;;;;;;;;;;;20.29;64.09;100771.88;5047865;28;19921;-78
2022/08/04 07:21:22;;;;;;;;;;;;;;;20.26;64.67;100766.78;5033954;28;19924;-78
2022/08/04 07:23:48;;;;;;;;;;;;;;;20.29;64.70;100765.78;5031790;28;19928;-78
2022/08/04 07:26:15;;;;;;;;;;;;;;;20.29;64.88;100765.78;5052655;28;20059;-78
2022/08/04 07:28:40;;;;;;;;;;;;;;;20.25;65.22;100769.53;5031483;28;19956;-77
2022/08/04 07:31:08;;;;;;;;;;;;;;;20.19;65.17;100768.13;5036734;28;19955;-77
2022/08/04 07:33:33;;;;;;;;;;;;;;;20.21;65.25;100763.59;5029175;28;19920;-78
2022/08/04 07:35:59;;;;;;;;;;;;;;;20.34;62.96;100761.91;5025778;28;20054;-78
2022/08/04 07:38:24;;;;;;;;;;;;;;;20.31;64.25;100759.47;5044293;28;20420;-78
2022/08/04 07:40:50;;;;;;;;;;;;;;;20.33;64.60;100764.63;5019083;28;19921;-78
2022/08/04 07:43:18;;;;;;;;;;;;;;;20.28;65.54;100764.06;5031701;28;19923;-78
2022/08/04 07:45:43;;;;;;;;;;;;;;;20.24;65.06;100759.91;5052423;28;19917;-78
2022/08/04 07:48:09;;;;;;;;;;;;;;;20.26;65.77;100763.34;5027274;28;20293;-78
2022/08/04 07:50:35;;;;;;;;;;;;;;;20.25;65.28;100761.63;5044435;28;19921;-78
2022/08/04 07:53:01;;;;;;;;;;;;;;;20.25;65.02;100765.13;5049101;28;19921;-78
2022/08/04 07:55:27;;;;;;;;;;;;;;;20.34;64.44;100761.06;5012011;28;20023;-78
2022/08/04 07:57:52;;;;;;;;;;;;;;;20.26;65.17;100766.78;5027541;28;19925;-78
2022/08/04 08:00:20;;;;;;;;;;;;;;;20.22;65.25;100757.38;5032675;28;20252;-78
2022/08/04 08:02:47;;;;;;;;;;;;;;;20.23;65.16;100755.59;5051054;28;19924;-78
2022/08/04 08:05:15;;;;;;;;;;;;;;;20.25;64.97;100759.84;5012813;28;19920;-78
2022/08/04 08:07:43;;;;;;;;;;;;;;;20.25;65.60;100762.47;5024119;28;20430;-78
2022/08/04 08:10:13;;;;;;;;;;;;;;;20.25;65.37;100756.34;5046921;28;19924;-78
2022/08/04 08:12:38;;;;;;;;;;;;;;;20.23;65.02;100758.25;5044583;28;19943;-78
2022/08/04 08:15:05;;;;;;;;;;;;;;;20.24;65.32;100755.50;5033144;28;19917;-78
2022/08/04 08:17:30;;;;;;;;;;;;;;;20.29;64.42;100752.59;5037988;28;20009;-78
2022/08/04 08:19:56;;;;;;;;;;;;;;;20.27;64.85;100755.31;5033888;28;20011;-78
2022/08/04 08:22:21;;;;;;;;;;;;;;;20.22;65.13;100749.47;5036084;28;19921;-78
2022/08/04 08:24:46;;;;;;;;;;;;;;;20.50;63.92;100745.97;5045750;28;20385;-78
2022/08/04 08:27:12;;;;;;;;;;;;;;;20.29;64.78;100756.06;5028793;28;20544;-78
2022/08/04 08:29:38;;;;;;;;;;;;;;;20.21;64.97;100760.97;5047543;28;20015;-78
2022/08/04 08:32:06;;;;;;;;;;;;;;;20.25;64.84;100756.34;5033075;28;20273;-78
2022/08/04 08:34:31;;;;;;;;;;;;;;;20.22;64.82;100754.75;5043553;28;19921;-78
2022/08/04 08:37:03;;;;;;;;;;;;;;;20.24;64.91;100754.63;5023209;28;19974;-78
2022/08/04 08:39:49;;;;;;;;;;;;;;;20.24;64.82;100760.78;5044196;28;19913;-78
2022/08/04 08:42:30;;;;;;;;;;;;;;;20.23;65.09;100753.78;5036864;28;19928;-78
2022/08/04 08:45:02;;;;;;;;;;;;;;;20.26;64.95;100755.41;5031853;28;19931;-78
2022/08/04 08:47:45;;;;;;;;;;;;;;;20.25;64.88;100744.00;5051580;28;19939;-78
2022/08/04 08:50:34;;;;;;;;;;;;;;;20.21;65.01;100755.69;5038765;28;20359;-78
2022/08/04 08:53:18;;;;;;;;;;;;;;;20.29;65.01;100758.69;5062330;28;19946;-78
2022/08/04 08:56:02;;;;;;;;;;;;;;;20.23;64.79;100753.78;5051184;28;20274;-78
2022/08/04 08:58:34;;;;;;;;;;;;;;;20.33;64.35;100743.53;5025412;28;19939;-78
2022/08/04 09:01:08;;;;;;;;;;;;;;;20.26;64.90;100748.31;5049956;28;19920;-78
2022/08/04 09:03:52;;;;;;;;;;;;;;;20.23;64.55;100740.59;5048104;28;19971;-77
2022/08/04 09:06:36;;;;;;;;;;;;;;;20.28;64.86;100735.91;5041686;28;19919;-78
2022/08/04 09:09:17;;;;;;;;;;;;;;;20.33;64.49;100732.97;5020801;28;19925;-78
2022/08/04 09:11:57;;;;;;;;;;;;;;;20.41;64.15;100728.09;5033892;28;19929;-78
2022/08/04 09:14:27;;;;;;;;;;;;;;;20.45;63.95;100726.94;5045973;28;20304;-78
2022/08/04 09:16:55;;;;;;;;;;;;;;;20.45;64.07;100720.81;5032654;28;19925;-78
2022/08/04 09:19:38;;;;;;;;;;;;;;;20.44;63.86;100717.31;5031386;28;20381;-78
2022/08/04 09:22:04;;;;;;;;;;;;;;;20.42;64.11;100724.50;5049265;28;20316;-78
2022/08/04 09:24:38;;;;;;;;;;;;;;;20.48;63.98;100720.63;5046266;28;19916;-78
2022/08/04 09:27:23;;;;;;;;;;;;;;;20.46;64.02;100722.50;5039774;28;19921;-78
2022/08/04 09:29:56;;;;;;;;;;;;;;;20.49;63.90;100723.16;5012287;28;19921;-78
2022/08/04 09:32:29;;;;;;;;;;;;;;;20.45;64.24;100721.66;5035508;28;19925;-78
2022/08/04 09:35:06;;;;;;;;;;;;;;;20.45;63.83;100721.66;5020810;28;19917;-78
2022/08/04 09:37:37;;;;;;;;;;;;;;;20.45;63.83;100721.66;5052391;28;19940;-78
2022/08/04 09:40:09;;;;;;;;;;;;;;;20.47;63.73;100732.13;5056162;28;20432;-78
2022/08/04 09:42:48;;;;;;;;;;;;;;;20.47;63.81;100727.69;5048929;28;19931;-78
2022/08/04 09:45:32;;;;;;;;;;;;;;;20.48;63.79;100729.38;5036795;28;20415;-78
2022/08/04 09:48:24;;;;;;;;;;;;;;;20.51;63.62;100730.97;5025883;28;19946;-78
2022/08/04 09:50:52;;;;;;;;;;;;;;;20.53;63.49;100734.41;5045410;28;20385;-78
2022/08/04 09:53:24;;;;;;;;;;;;;;;20.52;63.34;100728.25;5049374;28;19928;-78
2022/08/04 09:55:56;;;;;;;;;;;;;;;20.52;63.33;100730.91;5034054;28;20293;-78
2022/08/04 09:58:41;;;;;;;;;;;;;;;20.54;63.17;100736.06;5031285;28;19929;-78
2022/08/04 10:01:12;;;;;;;;;;;;;;;20.53;63.45;100737.03;5034005;28;19925;-78
2022/08/04 10:03:40;;;;;;;;;;;;;;;20.55;63.16;100732.50;5030041;28;19920;-78
2022/08/04 10:06:08;;;;;;;;;;;;;;;20.52;63.70;100730.03;5050355;28;19920;-78
2022/08/04 10:08:34;;;;;;;;;;;;;;;20.62;63.11;100733.81;5044470;28;20390;-78
2022/08/04 10:11:06;;;;;;;;;;;;;;;20.64;63.47;100729.28;5059939;28;19928;-78
2022/08/04 10:13:50;;;;;;;;;;;;;;;21.14;60.73;100723.41;5033465;28;19920;-78
2022/08/04 10:16:51;;;;;;;;;;;;;;;20.93;62.21;100732.72;5045369;28;19940;-78
2022/08/04 10:19:26;;;;;;;;;;;;;;;21.09;61.01;100721.09;4909241;29;19926;-78
2022/08/04 10:22:07;;;;;;;;;;;;;;;21.02;61.58;100727.69;5031164;28;19968;-78
2022/08/04 10:25:11;;;;;;;;;;;;;;;20.81;62.38;100727.25;5050408;28;19920;-78
2022/08/04 10:27:36;;;;;;;;;;;;;;;20.73;62.60;100723.41;4947680;28;19918;-78
2022/08/04 10:30:10;;;;;;;;;;;;;;;20.82;62.97;100726.31;4968531;28;20346;-78
2022/08/04 10:32:54;;;;;;;;;;;;;;;20.73;62.63;100726.91;4999904;28;20912;-78
2022/08/04 10:35:21;;;;;;;;;;;;;;;20.76;63.14;100726.72;5031097;28;20012;-77
2022/08/04 10:37:57;;;;;;;;;;;;;;;21.10;61.71;100725.41;5048009;28;19925;-78
2022/08/04 10:40:44;;;;;;;;;;;;;;;20.85;62.59;100720.03;5056333;28;19932;-78
2022/08/04 10:43:24;;;;;;;;;;;;;;;20.96;61.15;100728.09;5030668;28;19921;-78
2022/08/04 10:46:04;;;;;;;;;;;;;;;21.89;48.93;100720.97;5046158;28;20016;-78
2022/08/04 10:48:35;;;;;;;;;;;;;;;21.97;50.33;100713.34;5051134;28;19921;-78
2022/08/04 10:51:00;;;;;;;;;;;;;;;21.92;53.11;100717.25;5034065;28;19916;-78
2022/08/04 10:53:29;;;;;;;;;;;;;;;21.27;59.58;100725.13;5041128;28;19928;-78
2022/08/04 10:55:57;;;;;;;;;;;;;;;21.85;53.58;100719.47;5049697;28;19955;-78
2022/08/04 10:58:26;;;;;;;;;;;;;;;22.09;52.14;100722.22;5046574;28;19924;-78
2022/08/04 11:00:55;;;;;;;;;;;;;;;22.43;49.90;100712.81;5050143;28;19927;-78
2022/08/04 11:03:24;;;;;;;;;;;;;;;23.81;44.17;100711.31;5043693;28;19925;-78
2022/08/04 11:05:51;;;;;;;;;;;;;;;23.56;44.09;100717.63;5036127;28;19920;-78
2022/08/04 11:08:30;;;;;;;;;;;;;;;23.47;43.76;100714.84;5050205;28;20024;-78
2022/08/04 11:11:00;;;;;;;;;;;;;;;22.64;47.70;100718.38;5027638;28;20389;-78
2022/08/04 11:13:31;;;;;;;;;;;;;;;23.72;42.49;100708.53;5034067;28;19921;-78
2022/08/04 11:16:01;;;;;;;;;;;;;;;23.90;39.63;100715.06;5060978;28;19991;-78
2022/08/04 11:18:44;;;;;;;;;;;;;;;23.81;40.48;100708.69;5050851;28;19917;-78
2022/08/04 11:21:15;;;;;;;;;;;;;;;23.69;42.33;100714.91;5034092;28;19929;-78
2022/08/04 11:23:45;;;;;;;;;;;;;;;24.52;40.65;100715.47;5055731;28;20392;-78
2022/08/04 11:26:20;;;;;;;;;;;;;;;23.45;49.02;100720.25;5044943;28;19956;-78
2022/08/04 11:29:04;;;;;;;;;;;;;;;23.88;43.18;100715.22;5045838;28;19927;-78
2022/08/04 11:31:34;;;;;;;;;;;;;;;23.46;43.75;100719.28;5044633;28;19967;-78
2022/08/04 11:34:03;;;;;;;;;;;;;;;24.05;42.17;100716.53;5049205;28;20547;-78
2022/08/04 11:36:28;;;;;;;;;;;;;;;24.29;41.34;100719.94;5045291;28;19917;-78
2022/08/04 11:38:57;;;;;;;;;;;;;;;24.03;41.80;100718.47;5047378;28;19923;-78
2022/08/04 11:41:33;;;;;;;;;;;;;;;24.02;42.15;100714.97;5028969;28;20401;-78
2022/08/04 11:43:59;;;;;;;;;;;;;;;24.24;41.81;100721.28;5051631;28;19925;-78
2022/08/04 11:46:31;;;;;;;;;;;;;;;25.17;39.48;100728.75;5030135;28;19921;-78
2022/08/04 11:49:00;;;;;;;;;;;;;;;24.86;40.35;100729.56;5047054;28;20015;-78
2022/08/04 11:51:27;;;;;;;;;;;;;;;24.26;42.00;100727.28;5053965;28;19988;-78
2022/08/04 11:53:53;;;;;;;;;;;;;;;23.96;42.83;100731.38;5011032;28;19925;-78
2022/08/04 11:56:18;;;;;;;;;;;;;;;23.82;42.25;100725.44;5033156;28;19944;-78
2022/08/04 11:58:43;;;;;;;;;;;;;;;23.97;42.24;100730.41;5029377;28;19975;-78
2022/08/04 12:01:15;;;;;;;;;;;;;;;23.91;43.08;100730.91;5035264;28;20426;-78
2022/08/04 12:03:49;;;;;;;;;;;;;;;24.88;42.96;100717.84;5036251;28;19940;-78
2022/08/04 12:06:26;;;;;;;;;;;;;;;25.48;43.20;100721.75;5049413;28;19967;-78
2022/08/04 12:08:55;;;;;;;;;;;;;;;24.80;45.20;100724.75;5047513;28;19924;-78
2022/08/04 12:11:26;;;;;;;;;;;;;;;24.96;45.55;100733.13;5032379;28;19916;-78
2022/08/04 12:13:52;;;;;;;;;;;;;;;25.07;45.14;100738.47;5050397;28;19925;-78
2022/08/04 12:16:21;;;;;;;;;;;;;;;25.37;44.07;100732.44;5036366;28;20278;-78
2022/08/04 12:18:56;;;;;;;;;;;;;;;24.60;46.30;100742.25;5044729;28;19925;-78
2022/08/04 12:21:38;;;;;;;;;;;;;;;24.96;45.06;100743.78;5046724;28;19913;-78
2022/08/04 12:24:07;;;;;;;;;;;;;;;24.89;45.38;100748.75;5044087;28;20293;-78
2022/08/04 12:26:37;;;;;;;;;;;;;;;25.05;44.57;100754.53;5045666;28;19921;-78
2022/08/04 12:29:04;;;;;;;;;;;;;;;24.93;45.04;100752.84;5045184;28;20353;-78
2022/08/04 12:31:34;;;;;;;;;;;;;;;24.28;47.33;100755.41;5009997;28;20340;-79
2022/08/04 12:34:08;;;;;;;;;;;;;;;24.74;46.58;100757.97;5046073;28;19964;-78
2022/08/04 12:36:36;;;;;;;;;;;;;;;24.26;48.29;100743.22;5051646;28;19924;-78
2022/08/04 12:39:05;;;;;;;;;;;;;;;24.58;47.78;100736.25;5042733;28;20008;-78
2022/08/04 12:41:37;;;;;;;;;;;;;;;24.90;46.39;100721.19;5035008;28;19944;-78
2022/08/04 12:44:04;;;;;;;;;;;;;;;25.19;45.68;100718.88;5024163;28;19932;-78
2022/08/04 12:46:31;;;;;;;;;;;;;;;24.73;47.01;100737.66;5034148;28;19925;-78
2022/08/04 12:48:59;;;;;;;;;;;;;;;24.61;47.73;100738.66;5029910;28;19989;-79
2022/08/04 12:51:25;;;;;;;;;;;;;;;25.07;46.50;100744.63;5048029;28;19936;-79
2022/08/04 12:53:51;;;;;;;;;;;;;;;24.95;46.91;100750.94;5048918;28;20412;-79
2022/08/04 12:56:22;;;;;;;;;;;;;;;24.68;47.30;100750.50;5030320;28;19956;-79
2022/08/04 12:58:50;;;;;;;;;;;;;;;24.61;47.15;100743.97;5048916;28;19929;-79
2022/08/04 13:01:20;;;;;;;;;;;;;;;24.67;46.52;100752.28;5034842;28;20011;-78
2022/08/04 13:03:48;;;;;;;;;;;;;;;24.73;45.87;100755.41;5039876;28;19913;-79
2022/08/04 13:06:15;;;;;;;;;;;;;;;24.78;45.48;100751.41;5053078;28;19960;-79
2022/08/04 13:08:42;;;;;;;;;;;;;;;24.72;45.67;100756.41;5037188;28;19921;-79
2022/08/04 13:11:10;;;;;;;;;;;;;;;24.82;45.18;100762.66;5035506;28;20366;-79
2022/08/04 13:13:36;;;;;;;;;;;;;;;24.73;45.73;100755.41;5055430;28;20915;-79
2022/08/04 13:16:04;;;;;;;;;;;;;;;24.81;45.68;100758.31;5053961;28;19931;-79
2022/08/04 13:18:32;;;;;;;;;;;;;;;24.87;45.58;100760.47;5027242;28;20464;-79
2022/08/04 13:21:09;;;;;;;;;;;;;;;24.41;47.38;100769.47;5035814;28;19916;-79
2022/08/04 13:23:36;;;;;;;;;;;;;;;24.84;45.89;100764.22;5017090;28;19999;-79
2022/08/04 13:26:03;;;;;;;;;;;;;;;25.05;44.88;100759.00;5041468;28;19924;-79
2022/08/04 13:28:30;;;;;;;;;;;;;;;24.91;45.07;100764.56;5057971;28;19925;-79
2022/08/04 13:30:57;;;;;;;;;;;;;;;24.59;46.97;100760.03;5054478;28;20363;-79
2022/08/04 13:33:28;;;;;;;;;;;;;;;24.84;46.68;100763.38;5033924;28;20296;-79
2022/08/04 13:35:55;;;;;;;;;;;;;;;25.03;46.28;100767.13;5052225;28;20503;-79
2022/08/04 13:38:22;;;;;;;;;;;;;;;24.42;48.03;100771.13;5053255;28;20004;-79
2022/08/04 13:40:49;;;;;;;;;;;;;;;25.01;46.40;100760.25;5036614;28;19921;-79
2022/08/04 13:43:23;;;;;;;;;;;;;;;25.47;45.65;100771.44;5051922;28;20278;-79
2022/08/04 13:45:49;;;;;;;;;;;;;;;24.86;47.82;100767.63;5053209;28;20258;-79
2022/08/04 13:48:15;;;;;;;;;;;;;;;25.17;46.73;100761.50;5058069;28;19912;-79
2022/08/04 13:50:44;;;;;;;;;;;;;;;25.61;45.15;100755.16;5016194;28;19921;-79
2022/08/04 13:53:10;;;;;;;;;;;;;;;25.49;45.83;100750.88;5067483;28;19999;-79
2022/08/04 13:55:37;;;;;;;;;;;;;;;25.18;47.00;100757.91;5051546;28;20448;-79
2022/08/04 13:58:22;;;;;;;;;;;;;;;25.59;45.49;100754.44;5050354;28;20019;-79
2022/08/04 14:01:01;;;;;;;;;;;;;;;25.51;45.05;100751.59;5037365;28;19917;-79
2022/08/04 14:03:31;;;;;;;;;;;;;;;25.22;44.92;100740.69;5032873;28;20391;-79
2022/08/04 14:06:06;;;;;;;;;;;;;;;25.16;45.14;100741.19;5046425;28;19936;-79
2022/08/04 14:08:33;;;;;;;;;;;;;;;25.08;45.62;100746.31;5030095;28;19930;-79
2022/08/04 14:10:58;;;;;;;;;;;;;;;24.73;46.23;100744.78;5034408;28;19924;-79
2022/08/04 14:13:31;;;;;;;;;;;;;;;25.63;43.92;100747.94;5031431;28;19921;-79
2022/08/04 14:15:56;;;;;;;;;;;;;;;25.50;43.62;100743.72;5032778;28;20412;-79
2022/08/04 14:18:23;;;;;;;;;;;;;;;25.38;44.40;100747.41;5051095;28;19925;-79
2022/08/04 14:21:09;;;;;;;;;;;;;;;25.64;42.56;100740.78;5048798;28;19936;-79
2022/08/04 14:23:42;;;;;;;;;;;;;;;25.46;43.66;100734.34;5047252;28;19963;-79